Time;durP1;ratioP1;P1;durP2;ratioP2;P2;SDS_P1;SDS_P2;PMS_P1;PMS_P2;Temp;Humidity;BMP_temperature;BMP_pressure;BME280_temperature;BME280_humidity;BME280_pressure;Samples;Min_cycle;Max_cycle;Signal;HPM_P1;HPM_P2
2021/08/15 00:01:53;;;;;;;11.50;10.37;;;26.20;99.90;;;;;;5115415;28;20168;-63
2021/08/15 00:04:18;;;;;;;14.07;10.67;;;26.20;99.90;;;;;;5115184;28;20640;-65
2021/08/15 00:06:44;;;;;;;12.40;11.10;;;26.10;99.90;;;;;;5115272;28;20590;-64
2021/08/15 00:09:09;;;;;;;14.07;10.30;;;26.10;99.90;;;;;;5115217;28;20178;-63
2021/08/15 00:11:35;;;;;;;11.10;10.10;;;26.10;99.90;;;;;;5115112;28;20206;-64
2021/08/15 00:14:01;;;;;;;11.80;10.53;;;26.00;99.90;;;;;;5114962;28;20214;-63
2021/08/15 00:16:26;;;;;;;11.77;10.57;;;26.00;99.90;;;;;;5114921;28;20191;-64
2021/08/15 00:18:52;;;;;;;11.03;9.93;;;26.00;99.90;;;;;;5115020;28;20256;-63
2021/08/15 00:21:18;;;;;;;11.77;10.60;;;25.90;99.90;;;;;;5114715;28;20198;-64
2021/08/15 00:23:43;;;;;;;12.77;11.43;;;25.90;99.90;;;;;;5113498;28;20762;-63
2021/08/15 00:26:09;;;;;;;15.27;11.33;;;25.90;99.90;;;;;;5114817;28;20194;-63
2021/08/15 00:28:36;;;;;;;12.57;11.37;;;25.80;99.90;;;;;;5148141;27;20183;-63
2021/08/15 00:31:02;;;;;;;12.20;10.90;;;25.80;99.90;;;;;;5114704;28;20191;-63
2021/08/15 00:33:27;;;;;;;14.80;10.93;;;25.70;99.90;;;;;;5114667;28;20470;-64
2021/08/15 00:35:53;;;;;;;12.20;10.97;;;25.70;99.90;;;;;;5114635;28;20429;-63
2021/08/15 00:38:18;;;;;;;11.90;10.70;;;25.70;99.90;;;;;;5113619;28;20216;-62
2021/08/15 00:40:44;;;;;;;14.80;10.90;;;25.60;99.90;;;;;;5114669;28;20245;-62
2021/08/15 00:43:10;;;;;;;13.43;12.03;;;25.60;99.90;;;;;;5113447;28;20191;-63
2021/08/15 00:45:35;;;;;;;11.73;10.43;;;25.60;99.90;;;;;;5114416;28;20198;-63
2021/08/15 00:48:09;;;;;;;13.93;11.40;;;25.60;99.90;;;;;;5114854;28;20265;-63
2021/08/15 00:50:36;;;;;;;11.47;10.27;;;25.50;99.90;;;;;;5147556;27;20753;-63
2021/08/15 00:53:02;;;;;;;12.10;10.80;;;25.40;99.90;;;;;;5114741;28;20554;-63
2021/08/15 00:55:27;;;;;;;12.17;11.17;;;25.40;99.90;;;;;;5113095;28;20519;-63
2021/08/15 00:57:53;;;;;;;13.10;11.77;;;25.40;99.90;;;;;;5113216;28;20209;-63
2021/08/15 01:00:19;;;;;;;13.83;11.87;;;25.40;99.90;;;;;;5114252;28;20683;-63
2021/08/15 01:02:48;;;;;;;14.63;10.73;;;25.30;99.90;;;;;;5114591;28;20640;-63
2021/08/15 01:05:15;;;;;;;11.70;10.60;;;25.30;99.90;;;;;;5114198;28;20206;-63
2021/08/15 01:07:42;;;;;;;13.90;11.27;;;25.30;99.90;;;;;;5114528;28;20431;-63
2021/08/15 01:10:10;;;;;;;14.87;11.80;;;25.20;99.90;;;;;;5114163;28;20419;-64
2021/08/15 01:12:36;;;;;;;12.40;11.13;;;25.20;99.90;;;;;;5114392;28;20475;-63
2021/08/15 01:15:02;;;;;;;14.07;12.63;;;25.20;99.90;;;;;;5114011;28;20813;-63
2021/08/15 01:17:29;;;;;;;13.20;11.90;;;25.20;99.90;;;;;;5114468;28;20185;-63
2021/08/15 01:19:55;;;;;;;12.80;11.57;;;25.20;99.90;;;;;;5147216;27;20427;-63
2021/08/15 01:22:22;;;;;;;13.10;11.90;;;25.10;99.90;;;;;;5114249;28;20502;-63
2021/08/15 01:24:52;;;;;;;13.40;12.00;;;25.10;99.90;;;;;;5114235;28;20953;-63
2021/08/15 01:27:20;;;;;;;12.67;11.57;;;25.10;99.90;;;;;;5147234;27;20431;-65
2021/08/15 01:29:46;;;;;;;14.90;11.43;;;25.10;99.90;;;;;;5114025;28;20922;-63
2021/08/15 01:32:14;;;;;;;12.87;11.67;;;25.10;99.90;;;;;;5113853;28;20461;-63
2021/08/15 01:34:40;;;;;;;12.57;11.30;;;25.10;99.90;;;;;;5114058;28;20421;-65
2021/08/15 01:37:10;;;;;;;12.90;11.77;;;25.10;99.90;;;;;;5113986;28;20471;-63
2021/08/15 01:39:39;;;;;;;13.53;12.13;;;25.10;99.90;;;;;;5113975;28;20194;-63
2021/08/15 01:42:04;;;;;;;13.80;11.80;;;25.10;99.90;;;;;;5114122;28;20420;-64
2021/08/15 01:44:30;;;;;;;12.80;11.60;;;25.00;99.90;;;;;;5113891;28;20390;-63
2021/08/15 01:46:55;;;;;;;13.53;12.10;;;25.00;99.90;;;;;;5114027;28;20183;-63
2021/08/15 01:49:21;;;;;;;13.00;11.80;;;25.00;99.90;;;;;;5113817;28;20181;-63
2021/08/15 01:51:46;;;;;;;14.07;12.70;;;25.00;99.90;;;;;;5113936;28;20177;-63
2021/08/15 01:54:12;;;;;;;14.07;12.67;;;24.90;99.90;;;;;;5113864;28;20635;-63
2021/08/15 01:56:38;;;;;;;13.27;11.90;;;24.90;99.90;;;;;;5113716;28;20602;-63
2021/08/15 01:59:03;;;;;;;13.33;12.03;;;24.90;99.90;;;;;;5146768;27;20181;-63
2021/08/15 02:01:29;;;;;;;12.00;10.90;;;24.90;99.90;;;;;;5113641;28;20196;-63
2021/08/15 02:03:54;;;;;;;13.97;12.57;;;24.90;99.90;;;;;;5113694;28;20178;-65
2021/08/15 02:06:20;;;;;;;13.27;12.07;;;24.90;99.90;;;;;;5113611;28;20197;-63
2021/08/15 02:08:48;;;;;;;11.93;10.83;;;24.80;99.90;;;;;;5113666;28;20174;-64
2021/08/15 02:11:14;;;;;;;13.00;11.73;;;24.80;99.90;;;;;;5113612;28;20279;-63
2021/08/15 02:13:40;;;;;;;12.90;11.70;;;24.80;99.90;;;;;;5146629;27;20840;-63
2021/08/15 02:16:06;;;;;;;12.20;10.90;;;24.80;99.90;;;;;;5146622;27;20445;-63
2021/08/15 02:18:32;;;;;;;11.50;10.50;;;24.80;99.90;;;;;;5114186;28;20590;-63
2021/08/15 02:20:58;;;;;;;12.90;11.40;;;24.70;99.90;;;;;;5116257;28;20441;-63
2021/08/15 02:23:24;;;;;;;13.50;12.17;;;24.70;99.90;;;;;;5117386;28;20221;-63
2021/08/15 02:25:49;;;;;;;12.60;11.20;;;24.60;99.90;;;;;;5117305;28;20200;-63
2021/08/15 02:28:15;;;;;;;11.10;10.00;;;24.60;99.90;;;;;;5117172;28;20412;-65
2021/08/15 02:30:41;;;;;;;12.23;11.13;;;24.60;99.90;;;;;;5117103;28;20202;-63
2021/08/15 02:33:06;;;;;;;13.27;12.00;;;24.50;99.90;;;;;;5117392;28;20791;-63
2021/08/15 02:35:33;;;;;;;12.33;10.93;;;24.50;99.90;;;;;;5116976;28;20551;-63
2021/08/15 02:37:59;;;;;;;13.27;11.53;;;24.40;99.90;;;;;;5117424;28;20626;-63
2021/08/15 02:40:25;;;;;;;16.73;11.33;;;24.40;99.90;;;;;;5116944;28;20421;-63
2021/08/15 02:42:53;;;;;;;12.47;11.27;;;24.40;99.90;;;;;;5150290;27;20424;-63
2021/08/15 02:45:20;;;;;;;15.40;12.43;;;24.40;99.90;;;;;;5116726;28;20229;-63
2021/08/15 02:47:47;;;;;;;13.17;11.47;;;24.40;99.90;;;;;;5115686;28;20428;-63
2021/08/15 02:50:13;;;;;;;13.07;11.73;;;24.30;99.90;;;;;;5116638;28;20430;-63
2021/08/15 02:52:39;;;;;;;15.27;11.17;;;24.30;99.90;;;;;;5150050;27;20471;-63
2021/08/15 02:55:06;;;;;;;13.30;12.00;;;24.30;99.90;;;;;;5116590;28;20426;-63
2021/08/15 02:57:32;;;;;;;14.30;12.80;;;24.30;99.90;;;;;;5116934;28;20184;-63
2021/08/15 02:59:57;;;;;;;12.77;11.57;;;24.30;99.90;;;;;;5116484;28;20425;-63
2021/08/15 03:02:23;;;;;;;13.37;11.93;;;24.30;99.90;;;;;;5117026;28;20189;-63
2021/08/15 03:04:49;;;;;;;14.47;11.33;;;24.20;99.90;;;;;;5116467;28;20547;-63
2021/08/15 03:07:16;;;;;;;13.80;11.90;;;24.20;99.90;;;;;;5116628;28;20181;-63
2021/08/15 03:09:43;;;;;;;13.67;12.10;;;24.20;99.90;;;;;;5116286;28;20195;-63
2021/08/15 03:12:09;;;;;;;14.53;12.93;;;24.20;99.90;;;;;;5116454;28;20456;-63
2021/08/15 03:14:35;;;;;;;14.63;10.83;;;24.10;99.90;;;;;;5116349;28;20420;-65
2021/08/15 03:17:00;;;;;;;13.73;12.27;;;24.10;99.90;;;;;;5116416;28;20936;-63
2021/08/15 03:19:26;;;;;;;14.13;12.37;;;24.10;99.90;;;;;;5114858;28;20516;-63
2021/08/15 03:21:51;;;;;;;15.63;13.20;;;24.10;99.90;;;;;;5116186;28;20181;-63
2021/08/15 03:24:17;;;;;;;12.53;11.20;;;24.10;99.90;;;;;;5115911;28;20689;-63
2021/08/15 03:26:46;;;;;;;14.00;12.70;;;24.10;99.90;;;;;;5116150;28;20177;-63
2021/08/15 03:29:16;;;;;;;12.47;11.17;;;24.10;99.90;;;;;;5115967;28;20203;-63
2021/08/15 03:31:43;;;;;;;12.10;10.77;;;24.00;99.90;;;;;;5114764;28;20511;-63
2021/08/15 03:34:10;;;;;;;14.03;12.57;;;24.00;99.90;;;;;;5116060;28;20515;-63
2021/08/15 03:36:35;;;;;;;15.40;11.90;;;24.00;99.90;;;;;;5115896;28;20438;-63
2021/08/15 03:39:02;;;;;;;16.23;11.90;;;24.00;99.90;;;;;;5115767;28;20465;-64
2021/08/15 03:41:28;;;;;;;13.67;11.70;;;24.00;99.90;;;;;;5115694;28;20216;-63
2021/08/15 03:43:53;;;;;;;14.80;12.67;;;24.00;99.90;;;;;;5115751;28;20921;-64
2021/08/15 03:46:19;;;;;;;13.60;12.20;;;24.00;99.90;;;;;;5115509;28;20197;-64
2021/08/15 03:48:45;;;;;;;14.03;12.13;;;24.00;99.90;;;;;;5148731;27;20171;-64
2021/08/15 03:51:10;;;;;;;13.70;12.40;;;23.90;99.90;;;;;;5115444;28;20192;-63
2021/08/15 03:53:37;;;;;;;13.10;11.80;;;23.90;99.90;;;;;;5115342;28;20251;-63
2021/08/15 03:56:03;;;;;;;14.47;12.97;;;23.90;99.90;;;;;;5115388;28;20598;-63
2021/08/15 03:58:29;;;;;;;16.67;15.07;;;23.90;99.90;;;;;;5148756;27;20473;-63
2021/08/15 04:00:55;;;;;;;14.17;12.67;;;23.90;99.90;;;;;;5113981;28;20433;-64
2021/08/15 04:03:21;;;;;;;15.10;13.47;;;23.80;99.90;;;;;;5114336;28;20668;-63
2021/08/15 04:05:46;;;;;;;18.43;14.27;;;23.80;99.90;;;;;;5115234;28;20416;-63
2021/08/15 04:08:12;;;;;;;13.97;11.73;;;23.90;99.90;;;;;;5114123;28;20180;-62
2021/08/15 04:10:38;;;;;;;14.07;12.73;;;23.90;99.90;;;;;;5115135;28;20667;-64
2021/08/15 04:13:04;;;;;;;15.13;13.10;;;23.90;99.90;;;;;;5115482;28;20215;-63
2021/08/15 04:15:30;;;;;;;14.33;12.83;;;23.90;99.90;;;;;;5115056;28;20527;-62
2021/08/15 04:17:55;;;;;;;13.27;11.97;;;23.90;99.90;;;;;;5115373;28;20420;-63
2021/08/15 04:20:21;;;;;;;13.13;11.80;;;23.90;99.90;;;;;;5114977;28;20653;-63
2021/08/15 04:22:48;;;;;;;14.57;12.57;;;23.90;99.90;;;;;;5114885;28;20253;-62
2021/08/15 04:25:13;;;;;;;15.90;12.40;;;23.90;99.90;;;;;;5114876;28;20798;-63
2021/08/15 04:27:39;;;;;;;15.07;12.57;;;23.90;99.90;;;;;;5115200;28;20482;-63
2021/08/15 04:30:07;;;;;;;14.10;12.70;;;23.90;99.90;;;;;;5114778;28;20489;-65
2021/08/15 04:32:33;;;;;;;13.30;11.77;;;23.90;99.90;;;;;;5114854;28;20204;-63
2021/08/15 04:34:58;;;;;;;13.97;12.47;;;24.00;99.90;;;;;;5114652;28;20473;-64
2021/08/15 04:37:24;;;;;;;14.00;12.67;;;24.00;99.90;;;;;;5115066;28;20908;-63
2021/08/15 04:39:50;;;;;;;15.63;13.40;;;24.00;99.90;;;;;;5114698;28;20217;-63
2021/08/15 04:42:15;;;;;;;15.03;12.70;;;24.10;99.90;;;;;;5114384;28;20460;-63
2021/08/15 04:44:41;;;;;;;15.63;13.53;;;24.10;99.90;;;;;;5113242;28;20649;-65
2021/08/15 04:47:06;;;;;;;16.33;13.90;;;24.20;99.90;;;;;;5147714;27;20267;-63
2021/08/15 04:49:32;;;;;;;19.80;14.67;;;24.20;99.90;;;;;;5114639;28;20696;-63
2021/08/15 04:51:58;;;;;;;17.13;15.30;;;24.20;99.90;;;;;;5114186;28;20669;-63
2021/08/15 04:54:27;;;;;;;18.00;16.20;;;24.30;99.90;;;;;;5114478;28;20228;-63
2021/08/15 04:56:53;;;;;;;18.83;16.90;;;24.30;99.90;;;;;;5114600;28;20614;-63
2021/08/15 04:59:19;;;;;;;21.30;19.00;;;24.40;99.90;;;;;;5114291;28;20421;-65
2021/08/15 05:01:44;;;;;;;19.50;17.50;;;24.40;99.90;;;;;;5114423;28;20414;-63
2021/08/15 05:04:10;;;;;;;22.07;19.77;;;24.50;99.90;;;;;;5114327;28;20227;-64
2021/08/15 05:06:36;;;;;;;20.50;18.50;;;24.60;99.90;;;;;;5114235;28;20210;-64
2021/08/15 05:09:03;;;;;;;18.37;16.47;;;24.60;99.90;;;;;;5147289;27;20231;-64
2021/08/15 05:11:28;;;;;;;18.70;16.80;;;24.70;99.90;;;;;;5114217;28;20185;-63
2021/08/15 05:13:54;;;;;;;18.33;16.53;;;24.80;99.90;;;;;;5114119;28;20451;-64
2021/08/15 05:16:20;;;;;;;16.13;14.50;;;24.90;99.90;;;;;;5114083;28;20229;-64
2021/08/15 05:18:45;;;;;;;19.23;16.53;;;24.90;99.90;;;;;;5114157;28;20177;-64
2021/08/15 05:21:11;;;;;;;17.27;15.57;;;25.00;99.90;;;;;;5114000;28;20204;-63
2021/08/15 05:23:36;;;;;;;18.10;15.70;;;25.00;99.90;;;;;;5114043;28;20308;-64
2021/08/15 05:26:02;;;;;;;17.33;15.57;;;25.10;99.90;;;;;;5114000;28;20189;-63
2021/08/15 05:28:27;;;;;;;16.53;14.73;;;25.20;99.90;;;;;;5114764;28;20338;-63
2021/08/15 05:30:53;;;;;;;16.57;14.70;;;25.30;99.90;;;;;;5146997;27;20193;-63
2021/08/15 05:33:19;;;;;;;16.50;14.90;;;25.30;99.90;;;;;;5113747;28;20212;-63
2021/08/15 05:35:44;;;;;;;15.90;14.50;;;25.40;99.90;;;;;;5113975;28;20216;-63
2021/08/15 05:38:10;;;;;;;15.77;14.23;;;25.50;99.90;;;;;;5114338;28;20178;-64
2021/08/15 05:40:35;;;;;;;15.40;13.77;;;25.60;99.90;;;;;;5112563;28;20275;-63
2021/08/15 05:43:01;;;;;;;14.37;12.90;;;25.60;99.90;;;;;;5114286;28;20186;-63
2021/08/15 05:45:27;;;;;;;15.17;13.73;;;25.70;99.90;;;;;;5114114;28;20192;-63
2021/08/15 05:47:52;;;;;;;15.43;13.93;;;25.80;99.90;;;;;;5112810;28;20185;-63
2021/08/15 05:50:18;;;;;;;15.33;13.83;;;25.90;99.90;;;;;;5113765;28;20195;-65
2021/08/15 05:52:43;;;;;;;14.80;12.60;;;26.00;99.90;;;;;;5114062;28;20260;-63
2021/08/15 05:55:09;;;;;;;14.57;13.27;;;26.10;99.90;;;;;;5148250;27;20194;-63
2021/08/15 05:57:35;;;;;;;17.10;14.60;;;26.20;99.90;;;;;;5118114;28;20182;-63
2021/08/15 06:00:01;;;;;;;14.30;12.90;;;26.20;99.90;;;;;;5116468;28;20426;-64
2021/08/15 06:02:26;;;;;;;15.30;13.70;;;26.30;99.90;;;;;;5116526;28;20690;-63
2021/08/15 06:04:52;;;;;;;15.40;13.80;;;26.40;99.90;;;;;;5117650;28;20199;-63
2021/08/15 06:07:17;;;;;;;15.10;13.63;;;26.50;99.90;;;;;;5117831;28;20176;-64
2021/08/15 06:09:43;;;;;;;15.00;13.03;;;26.60;99.90;;;;;;5117453;28;20188;-63
2021/08/15 06:12:08;;;;;;;13.93;12.63;;;26.70;99.90;;;;;;5117377;28;20686;-63
2021/08/15 06:14:34;;;;;;;15.70;12.00;;;26.80;99.90;;;;;;5117389;28;20195;-63
2021/08/15 06:17:01;;;;;;;12.50;11.43;;;26.90;99.90;;;;;;5117578;28;20172;-63
2021/08/15 06:19:27;;;;;;;12.50;11.20;;;27.00;99.90;;;;;;5117291;28;20392;-63
2021/08/15 06:21:52;;;;;;;12.40;11.10;;;27.10;99.90;;;;;;5117342;28;20736;-63
2021/08/15 06:24:18;;;;;;;11.93;10.93;;;27.20;99.90;;;;;;5117278;28;20637;-63
2021/08/15 06:26:44;;;;;;;13.13;10.30;;;27.30;99.90;;;;;;5117138;28;20202;-63
2021/08/15 06:29:09;;;;;;;11.40;10.10;;;27.40;99.90;;;;;;5117199;28;20183;-64
2021/08/15 06:31:35;;;;;;;11.57;10.47;;;27.50;99.90;;;;;;5117105;28;20200;-64
2021/08/15 06:34:01;;;;;;;13.77;9.97;;;27.60;99.90;;;;;;5116912;28;20222;-65
2021/08/15 06:36:26;;;;;;;9.93;9.03;;;27.70;99.90;;;;;;5150152;27;20206;-63
2021/08/15 06:38:52;;;;;;;10.10;9.10;;;27.80;99.90;;;;;;5117031;28;20167;-64
2021/08/15 06:41:18;;;;;;;10.40;9.40;;;27.90;99.90;;;;;;5115483;28;20191;-63
2021/08/15 06:43:44;;;;;;;11.40;9.30;;;28.00;99.90;;;;;;5116897;28;20572;-64
2021/08/15 06:46:10;;;;;;;13.40;10.37;;;28.10;99.90;;;;;;5116798;28;20648;-63
2021/08/15 06:48:35;;;;;;;9.97;8.90;;;28.20;99.90;;;;;;5117334;28;20400;-63
2021/08/15 06:51:01;;;;;;;10.60;9.70;;;28.30;99.90;;;;;;5116626;28;20431;-63
2021/08/15 06:53:28;;;;;;;9.77;8.80;;;28.50;99.90;;;;;;5116536;28;20246;-63
2021/08/15 06:55:54;;;;;;;12.13;10.67;;;28.60;99.90;;;;;;5116604;28;20687;-63
2021/08/15 06:58:20;;;;;;;10.47;9.40;;;28.70;99.90;;;;;;5117138;28;20412;-63
2021/08/15 07:00:46;;;;;;;11.93;9.70;;;28.80;99.90;;;;;;5116576;28;20420;-64
2021/08/15 07:03:11;;;;;;;15.03;9.50;;;28.80;99.90;;;;;;5116498;28;20652;-63
2021/08/15 07:05:37;;;;;;;9.80;8.90;;;28.90;99.90;;;;;;5114666;28;20200;-65
2021/08/15 07:08:03;;;;;;;10.90;8.87;;;29.00;99.90;;;;;;5115092;28;20309;-64
2021/08/15 07:10:28;;;;;;;9.97;8.97;;;29.20;99.90;;;;;;5116240;28;20280;-63
2021/08/15 07:12:55;;;;;;;10.50;9.37;;;29.30;99.90;;;;;;5116430;28;20658;-63
2021/08/15 07:15:22;;;;;;;9.10;8.30;;;29.40;99.90;;;;;;5149372;27;20246;-65
2021/08/15 07:17:48;;;;;;;9.97;9.07;;;29.50;99.90;;;;;;5149258;27;20479;-65
2021/08/15 07:20:14;;;;;;;10.47;9.47;;;29.60;99.90;;;;;;5116044;28;20426;-63
2021/08/15 07:22:40;;;;;;;12.33;10.80;;;29.70;99.90;;;;;;5116320;28;20468;-65
2021/08/15 07:25:06;;;;;;;11.90;9.63;;;29.80;99.90;;;;;;5115938;28;20415;-63
2021/08/15 07:27:33;;;;;;;10.77;9.53;;;29.90;99.90;;;;;;5116237;28;20191;-64
2021/08/15 07:29:59;;;;;;;10.00;9.00;;;30.00;99.90;;;;;;5115924;28;20432;-65
2021/08/15 07:32:25;;;;;;;10.43;9.10;;;30.10;99.90;;;;;;5114691;28;20480;-63
2021/08/15 07:34:50;;;;;;;12.03;10.40;;;30.20;99.90;;;;;;5115906;28;20191;-63
2021/08/15 07:37:16;;;;;;;11.03;9.50;;;30.20;99.90;;;;;;5115546;28;20576;-63
2021/08/15 07:39:42;;;;;;;10.60;9.50;;;30.30;99.90;;;;;;5115695;28;20234;-63
2021/08/15 07:42:08;;;;;;;10.60;9.53;;;30.40;99.90;;;;;;5115719;28;20638;-64
2021/08/15 07:44:33;;;;;;;9.87;8.97;;;30.50;99.90;;;;;;5114456;28;20174;-64
2021/08/15 07:46:59;;;;;;;11.70;9.40;;;30.60;99.90;;;;;;5115791;28;20452;-65
2021/08/15 07:49:24;;;;;;;9.77;8.80;;;30.70;99.90;;;;;;5115644;28;20187;-64
2021/08/15 07:51:50;;;;;;;10.53;9.43;;;30.70;99.90;;;;;;5115657;28;20259;-64
2021/08/15 07:54:15;;;;;;;9.43;8.50;;;30.80;99.90;;;;;;5115369;28;20196;-65
2021/08/15 07:56:41;;;;;;;9.53;8.63;;;30.90;99.90;;;;;;5115611;28;20185;-64
2021/08/15 07:59:07;;;;;;;10.70;9.70;;;31.00;99.90;;;;;;5115467;28;20170;-65
2021/08/15 08:01:32;;;;;;;11.07;9.47;;;31.10;99.90;;;;;;5115285;28;20266;-64
2021/08/15 08:03:58;;;;;;;9.57;8.70;;;31.20;98.90;;;;;;5115260;28;20171;-64
2021/08/15 08:06:23;;;;;;;8.80;8.00;;;31.30;99.20;;;;;;5115208;28;20549;-66
2021/08/15 08:08:50;;;;;;;10.73;9.37;;;31.40;98.60;;;;;;5115063;28;20175;-65
2021/08/15 08:11:16;;;;;;;9.43;8.73;;;31.50;98.40;;;;;;5115104;28;20194;-66
2021/08/15 08:13:41;;;;;;;9.93;7.70;;;31.60;98.40;;;;;;5115059;28;20935;-65
2021/08/15 08:16:07;;;;;;;9.57;8.60;;;31.70;98.50;;;;;;5114966;28;20703;-64
2021/08/15 08:18:32;;;;;;;8.37;7.57;;;31.80;98.50;;;;;;5114847;28;20212;-65
2021/08/15 08:20:58;;;;;;;8.90;8.10;;;31.90;96.70;;;;;;5114900;28;20183;-64
2021/08/15 08:23:24;;;;;;;9.23;7.70;;;32.00;96.00;;;;;;5115092;28;20240;-64
2021/08/15 08:25:50;;;;;;;8.30;7.40;;;32.10;95.70;;;;;;5112852;28;20274;-64
2021/08/15 08:28:15;;;;;;;8.10;7.40;;;32.20;95.70;;;;;;5113870;28;20541;-64
2021/08/15 08:30:42;;;;;;;7.87;7.10;;;32.30;95.30;;;;;;5113550;28;20443;-64
2021/08/15 08:33:08;;;;;;;8.17;7.17;;;32.40;94.30;;;;;;5145688;27;20219;-64
2021/08/15 08:35:33;;;;;;;7.50;6.50;;;32.40;94.70;;;;;;5112536;28;20416;-65
2021/08/15 08:37:59;;;;;;;7.73;7.00;;;32.50;95.50;;;;;;5112798;28;20415;-66
2021/08/15 08:40:25;;;;;;;10.73;7.50;;;32.60;94.50;;;;;;5112385;28;20230;-64
2021/08/15 08:42:51;;;;;;;8.60;7.70;;;32.70;95.20;;;;;;5145851;27;20524;-64
2021/08/15 08:45:22;;;;;;;8.30;7.50;;;32.80;94.20;;;;;;5112648;28;20297;-64
2021/08/15 08:47:49;;;;;;;8.40;7.30;;;32.80;94.20;;;;;;5107883;28;20432;-66
2021/08/15 08:50:16;;;;;;;9.20;8.30;;;32.90;93.30;;;;;;5093928;28;20797;-67
2021/08/15 08:52:42;;;;;;;7.70;7.10;;;33.00;93.20;;;;;;5104982;28;20510;-64
2021/08/15 08:55:09;;;;;;;8.53;7.70;;;33.10;93.40;;;;;;5112448;28;20428;-64
2021/08/15 08:57:35;;;;;;;10.80;8.00;;;33.20;92.80;;;;;;5112431;28;20483;-65
2021/08/15 09:00:00;;;;;;;8.90;7.60;;;33.20;93.40;;;;;;5112476;28;20503;-66
2021/08/15 09:02:26;;;;;;;13.30;8.10;;;33.30;92.40;;;;;;5113058;28;20553;-65
2021/08/15 09:04:52;;;;;;;9.30;8.50;;;33.30;92.50;;;;;;5113302;28;20194;-65
2021/08/15 09:07:20;;;;;;;8.77;8.07;;;33.40;92.90;;;;;;5113407;28;20419;-65
2021/08/15 09:09:59;;;;;;;8.23;7.43;;;33.50;92.20;;;;;;5113785;28;20616;-65
2021/08/15 09:12:43;;;;;;;7.60;6.90;;;33.70;91.70;;;;;;5147273;27;20550;-65
2021/08/15 09:15:20;;;;;;;8.23;7.53;;;33.90;92.10;;;;;;5114078;28;20423;-66
2021/08/15 09:17:47;;;;;;;9.73;7.30;;;34.10;92.50;;;;;;5114500;28;20427;-65
2021/08/15 09:20:39;;;;;;;8.43;7.50;;;34.30;92.10;;;;;;5114025;27;20412;-64
2021/08/15 09:23:17;;;;;;;7.63;7.00;;;34.40;91.40;;;;;;5114045;28;20550;-65
2021/08/15 09:25:43;;;;;;;9.00;8.30;;;34.40;90.80;;;;;;5113969;28;20820;-66
2021/08/15 09:28:09;;;;;;;7.20;6.50;;;34.30;90.60;;;;;;5114470;28;20412;-64
2021/08/15 09:30:34;;;;;;;9.30;7.60;;;34.30;91.20;;;;;;5151303;27;20282;-65
2021/08/15 09:33:06;;;;;;;8.87;8.07;;;34.30;90.60;;;;;;5118050;28;20257;-65
2021/08/15 09:35:37;;;;;;;8.30;7.50;;;34.30;90.50;;;;;;5118224;28;20191;-65
2021/08/15 09:38:05;;;;;;;8.03;7.30;;;34.30;90.60;;;;;;5118582;28;20420;-65
2021/08/15 09:40:46;;;;;;;8.53;7.60;;;34.30;91.30;;;;;;5118027;28;20968;-65
2021/08/15 09:43:22;;;;;;;7.70;7.10;;;34.30;90.60;;;;;;5118482;28;20427;-65
2021/08/15 09:45:49;;;;;;;7.87;7.17;;;34.30;89.70;;;;;;5118184;28;20822;-64
2021/08/15 09:48:27;;;;;;;9.97;7.67;;;34.30;89.70;;;;;;5151150;27;20431;-67
2021/08/15 09:51:09;;;;;;;8.87;8.07;;;34.30;89.80;;;;;;5117981;28;20785;-65
2021/08/15 09:53:59;;;;;;;9.13;7.47;;;34.30;90.10;;;;;;5118458;28;20471;-64
2021/08/15 09:56:38;;;;;;;8.33;7.53;;;34.40;89.00;;;;;;5112003;28;20956;-65
2021/08/15 09:59:14;;;;;;;8.07;7.37;;;34.50;89.50;;;;;;5117661;28;20443;-66
2021/08/15 10:01:41;;;;;;;8.93;7.70;;;34.50;88.70;;;;;;5117577;28;20748;-66
2021/08/15 10:04:08;;;;;;;7.03;6.43;;;34.60;88.80;;;;;;5117440;28;20411;-65
2021/08/15 10:06:38;;;;;;;7.43;6.73;;;34.60;89.60;;;;;;5117504;28;20424;-65
2021/08/15 10:09:05;;;;;;;8.70;7.90;;;34.60;88.50;;;;;;5117496;28;20412;-65
2021/08/15 10:11:32;;;;;;;9.80;7.63;;;34.60;87.10;;;;;;5150595;27;20472;-66
2021/08/15 10:13:59;;;;;;;8.07;7.33;;;34.60;86.40;;;;;;5150521;27;20452;-64
2021/08/15 10:16:33;;;;;;;7.87;7.07;;;34.60;88.00;;;;;;5115921;28;20427;-64
2021/08/15 10:19:02;;;;;;;8.40;7.70;;;34.60;86.80;;;;;;5150610;27;20404;-64
2021/08/15 10:21:29;;;;;;;8.13;7.53;;;34.60;86.40;;;;;;5117403;28;20412;-65
2021/08/15 10:24:07;;;;;;;8.77;7.67;;;34.70;85.80;;;;;;5117056;28;20447;-65
2021/08/15 10:26:43;;;;;;;9.30;7.70;;;34.70;85.70;;;;;;5117154;28;20423;-65
2021/08/15 10:29:39;;;;;;;8.50;7.80;;;34.70;86.10;;;;;;5117031;28;20396;-65
2021/08/15 10:32:24;;;;;;;8.87;7.10;;;34.80;87.10;;;;;;5109673;28;20424;-65
2021/08/15 10:34:50;;;;;;;8.90;8.03;;;34.80;86.50;;;;;;5117328;28;20449;-65
2021/08/15 10:37:28;;;;;;;8.20;7.57;;;34.90;86.80;;;;;;5117434;28;20905;-67
2021/08/15 10:39:56;;;;;;;9.37;7.20;;;34.90;86.30;;;;;;5116737;28;20188;-66
2021/08/15 10:42:39;;;;;;;8.53;7.80;;;34.90;86.20;;;;;;5116739;28;20490;-64
2021/08/15 10:45:13;;;;;;;8.93;8.13;;;34.90;87.20;;;;;;5149806;27;20440;-65
2021/08/15 10:47:39;;;;;;;8.57;7.80;;;35.00;85.10;;;;;;5116936;28;20913;-66
2021/08/15 10:50:07;;;;;;;7.80;7.10;;;35.00;84.20;;;;;;5116627;28;20837;-65
2021/08/15 10:52:37;;;;;;;9.83;8.83;;;35.00;85.40;;;;;;5116990;28;20924;-65
2021/08/15 10:55:11;;;;;;;7.90;7.20;;;35.10;83.60;;;;;;5115313;28;20444;-67
2021/08/15 10:57:51;;;;;;;7.80;7.10;;;35.10;84.10;;;;;;5116677;28;20428;-65
2021/08/15 11:00:38;;;;;;;9.53;8.53;;;35.10;84.10;;;;;;5116554;28;20853;-65
2021/08/15 11:03:13;;;;;;;9.10;8.17;;;35.10;83.60;;;;;;5116900;28;20427;-66
2021/08/15 11:05:39;;;;;;;9.47;7.50;;;35.10;82.90;;;;;;5116426;28;20948;-66
2021/08/15 11:08:27;;;;;;;9.00;8.10;;;35.10;83.30;;;;;;5116319;28;20424;-65
2021/08/15 11:11:19;;;;;;;9.63;7.43;;;35.20;82.60;;;;;;5116300;28;20500;-67
2021/08/15 11:13:44;;;;;;;8.93;8.07;;;35.20;82.30;;;;;;5116410;28;20463;-66
2021/08/15 11:16:25;;;;;;;8.33;7.50;;;35.20;81.10;;;;;;5116226;28;20939;-65
2021/08/15 11:19:12;;;;;;;8.27;7.03;;;35.20;81.10;;;;;;5116187;28;20183;-65
2021/08/15 11:22:24;;;;;;;8.10;7.30;;;35.20;83.10;;;;;;5115815;28;20896;-65
2021/08/15 11:24:50;;;;;;;8.60;7.80;;;35.10;84.20;;;;;;5074968;28;20450;-65
2021/08/15 11:27:23;;;;;;;8.30;7.63;;;35.20;83.00;;;;;;5075209;28;20467;-65
2021/08/15 11:29:50;;;;;;;8.17;7.47;;;35.20;81.70;;;;;;5074151;28;20254;-65
2021/08/15 11:32:23;;;;;;;8.50;7.40;;;35.30;81.90;;;;;;5073761;28;20911;-65
2021/08/15 11:34:59;;;;;;;8.77;7.83;;;35.30;81.40;;;;;;5075401;28;20797;-65
2021/08/15 11:37:36;;;;;;;9.90;8.37;;;35.30;81.30;;;;;;5075572;28;20893;-65
2021/08/15 11:40:15;;;;;;;9.00;8.10;;;35.30;80.80;;;;;;5075177;28;20894;-66
2021/08/15 11:42:42;;;;;;;8.20;7.40;;;35.40;81.70;;;;;;5075232;28;20456;-66
2021/08/15 11:45:08;;;;;;;8.67;7.87;;;35.40;80.50;;;;;;5074950;28;20842;-66
2021/08/15 11:47:39;;;;;;;8.27;7.37;;;35.40;80.80;;;;;;5075262;28;20414;-65
2021/08/15 11:50:15;;;;;;;8.87;7.97;;;35.40;81.20;;;;;;5073601;28;20438;-65
2021/08/15 11:52:41;;;;;;;9.00;8.07;;;35.50;81.00;;;;;;5074174;28;20945;-64
2021/08/15 11:55:18;;;;;;;8.13;7.43;;;35.50;81.40;;;;;;5073506;28;20430;-66
2021/08/15 11:57:52;;;;;;;10.13;8.97;;;35.50;81.70;;;;;;5073730;28;20697;-66
2021/08/15 12:00:26;;;;;;;9.00;8.00;;;35.60;79.50;;;;;;5074505;28;20813;-66
2021/08/15 12:03:01;;;;;;;8.30;7.60;;;35.60;78.80;;;;;;5075157;28;20406;-65
2021/08/15 12:05:27;;;;;;;9.40;8.40;;;35.60;78.80;;;;;;5074553;28;20884;-65
2021/08/15 12:08:00;;;;;;;9.33;8.60;;;35.60;79.40;;;;;;5074549;28;20525;-65
2021/08/15 12:10:31;;;;;;;9.00;8.10;;;35.70;79.60;;;;;;5074340;28;20425;-66
2021/08/15 12:13:18;;;;;;;9.30;8.40;;;35.60;80.90;;;;;;5074578;28;20552;-65
2021/08/15 12:15:50;;;;;;;9.57;8.70;;;35.70;78.90;;;;;;5074177;28;20425;-64
2021/08/15 12:18:37;;;;;;;9.77;8.77;;;35.80;78.10;;;;;;5074530;28;20437;-67
2021/08/15 12:21:30;;;;;;;8.60;7.90;;;35.80;78.20;;;;;;5072955;28;20796;-64
2021/08/15 12:24:19;;;;;;;9.17;8.27;;;35.80;79.30;;;;;;5106071;28;20472;-64
2021/08/15 12:26:56;;;;;;;9.87;8.87;;;35.80;78.50;;;;;;5114817;28;20413;-65
2021/08/15 12:29:30;;;;;;;9.80;8.90;;;35.80;78.30;;;;;;5114656;28;20408;-65
2021/08/15 12:32:08;;;;;;;9.10;8.20;;;35.80;78.70;;;;;;5114676;28;20428;-65
2021/08/15 12:35:00;;;;;;;8.87;8.17;;;35.80;78.30;;;;;;5114522;28;21033;-65
2021/08/15 12:37:42;;;;;;;9.57;8.70;;;35.90;78.50;;;;;;5112535;28;20605;-65
2021/08/15 12:40:11;;;;;;;9.13;8.30;;;35.90;78.20;;;;;;5114568;28;20939;-65
2021/08/15 12:42:38;;;;;;;8.47;7.67;;;36.00;78.00;;;;;;5114759;28;20470;-65